createdAt,value
2019-01-26T00:00:37.118Z,53.55
2019-01-26T00:03:03.247Z,53.61
2019-01-26T00:05:29.162Z,53.76
2019-01-26T00:07:55.044Z,53.79
2019-01-26T00:10:20.939Z,53.48
2019-01-26T00:12:46.804Z,52.77
2019-01-26T00:15:12.681Z,52.89
2019-01-26T00:17:38.607Z,52.93
2019-01-26T00:20:08.452Z,52.83
2019-01-26T00:22:34.317Z,53.29
2019-01-26T00:25:00.233Z,53.07
2019-01-26T00:27:26.091Z,52.92
2019-01-26T00:29:52.320Z,52.96
2019-01-26T00:32:18.216Z,52.79
2019-01-26T00:34:44.091Z,52.64
2019-01-26T00:37:09.934Z,52.58
2019-01-26T00:39:35.901Z,53.06
2019-01-26T00:42:01.801Z,52.84
2019-01-26T00:44:27.665Z,52.63
2019-01-26T00:46:53.605Z,52.58
2019-01-26T00:49:19.523Z,52.88
2019-01-26T00:51:45.369Z,52.73
2019-01-26T00:54:11.275Z,52.63
2019-01-26T00:56:37.145Z,52.68
2019-01-26T00:59:03.160Z,52.71
2019-01-26T01:01:29.041Z,52.88
2019-01-26T01:03:54.918Z,52.76
2019-01-26T01:06:20.829Z,52.65
2019-01-26T01:08:46.694Z,52.53
2019-01-26T01:11:12.717Z,52.03
2019-01-26T01:13:38.567Z,51.86
2019-01-26T01:16:04.535Z,52.00
2019-01-26T01:18:30.420Z,52.22
2019-01-26T01:20:56.364Z,52.72
2019-01-26T01:23:22.360Z,52.63
2019-01-26T01:25:48.225Z,52.83
2019-01-26T01:28:14.100Z,52.97
2019-01-26T01:30:40.019Z,53.09
2019-01-26T01:33:05.874Z,53.31
2019-01-26T01:35:31.882Z,53.27
2019-01-26T01:37:57.758Z,52.78
2019-01-26T01:40:23.648Z,52.50
2019-01-26T01:42:49.535Z,52.20
2019-01-26T01:45:17.629Z,52.64
2019-01-26T01:47:43.612Z,52.67
2019-01-26T01:50:12.951Z,52.64
2019-01-26T01:52:38.870Z,52.02
2019-01-26T01:55:07.603Z,52.10
2019-01-26T01:57:33.489Z,52.20
2019-01-26T01:59:59.349Z,52.49
2019-01-26T02:02:25.261Z,52.37
2019-01-26T02:04:51.163Z,52.40
2019-01-26T02:07:17.027Z,51.82
2019-01-26T02:09:42.939Z,51.79
2019-01-26T02:12:08.841Z,51.51
2019-01-26T02:14:34.720Z,51.37
2019-01-26T02:17:00.620Z,51.47
2019-01-26T02:19:26.629Z,51.12
2019-01-26T02:21:52.507Z,51.15
2019-01-26T02:24:18.398Z,51.09
2019-01-26T02:26:44.317Z,50.91
2019-01-26T02:29:10.187Z,49.96
2019-01-26T02:31:36.048Z,50.08
2019-01-26T02:34:01.971Z,50.08
2019-01-26T02:36:27.825Z,50.05
2019-01-26T02:38:53.723Z,49.76
2019-01-26T02:41:19.585Z,49.58
2019-01-26T02:43:45.465Z,49.74
2019-01-26T02:46:11.356Z,50.05
2019-01-26T02:48:37.267Z,50.31
2019-01-26T02:51:03.246Z,50.40
2019-01-26T02:53:29.119Z,50.98
2019-01-26T02:55:55.056Z,51.23
2019-01-26T02:58:20.949Z,50.86
2019-01-26T03:00:46.830Z,51.21
2019-01-26T03:03:12.708Z,51.06
2019-01-26T03:05:38.581Z,50.94
2019-01-26T03:08:04.461Z,51.27
2019-01-26T03:10:30.349Z,51.07
2019-01-26T03:12:56.280Z,51.00
2019-01-26T03:15:22.655Z,50.74
2019-01-26T03:17:48.627Z,51.15
2019-01-26T03:20:15.644Z,50.98
2019-01-26T03:22:41.498Z,50.82
2019-01-26T03:25:08.659Z,50.79
2019-01-26T03:27:34.578Z,50.73
2019-01-26T03:30:00.571Z,50.53
2019-01-26T03:32:26.449Z,50.49
2019-01-26T03:34:52.431Z,50.52
2019-01-26T03:37:18.296Z,50.51
2019-01-26T03:39:44.164Z,50.57
2019-01-26T03:42:10.149Z,50.64
2019-01-26T03:44:36.727Z,50.48
2019-01-26T03:47:02.601Z,50.44
2019-01-26T03:49:28.671Z,50.32
2019-01-26T03:51:54.591Z,50.47
2019-01-26T03:54:20.468Z,50.43
2019-01-26T03:56:46.515Z,50.76
2019-01-26T03:59:12.411Z,50.39
2019-01-26T04:01:38.263Z,50.24
2019-01-26T04:04:04.186Z,50.02
2019-01-26T04:06:30.038Z,49.69
2019-01-26T04:08:55.910Z,49.35
2019-01-26T04:11:21.799Z,49.09
2019-01-26T04:13:47.662Z,49.40
2019-01-26T04:16:13.577Z,48.78
2019-01-26T04:18:39.437Z,48.99
2019-01-26T04:21:05.345Z,49.21
2019-01-26T04:23:31.267Z,49.20
2019-01-26T04:25:57.174Z,49.13
2019-01-26T04:28:23.000Z,49.48
2019-01-26T04:30:48.902Z,49.28
2019-01-26T04:33:14.793Z,49.31
2019-01-26T04:35:40.661Z,49.41
2019-01-26T04:38:06.597Z,49.76
2019-01-26T04:40:32.471Z,50.08
2019-01-26T04:42:58.373Z,50.02
2019-01-26T04:45:24.270Z,49.96
2019-01-26T04:47:50.156Z,49.80
2019-01-26T04:50:17.720Z,49.69
2019-01-26T04:52:43.619Z,49.46
2019-01-26T04:55:09.532Z,49.23
2019-01-26T04:57:35.404Z,49.79
2019-01-26T05:00:01.356Z,49.96
2019-01-26T05:02:27.249Z,49.52
2019-01-26T05:04:53.108Z,49.39
2019-01-26T05:07:18.978Z,49.49
2019-01-26T05:09:44.886Z,49.06
2019-01-26T05:12:10.757Z,48.61
2019-01-26T05:14:36.616Z,48.13
2019-01-26T05:17:02.575Z,47.77
2019-01-26T05:19:28.425Z,47.85
2019-01-26T05:21:54.286Z,48.10
2019-01-26T05:24:20.221Z,47.66
2019-01-26T05:26:46.079Z,46.90
2019-01-26T05:29:11.949Z,46.91
2019-01-26T05:31:37.914Z,47.18
2019-01-26T05:34:03.809Z,47.38
2019-01-26T05:36:29.701Z,47.47
2019-01-26T05:38:55.618Z,47.44
2019-01-26T05:41:21.457Z,47.72
2019-01-26T05:43:47.337Z,47.79
2019-01-26T05:46:13.268Z,47.89
2019-01-26T05:48:39.115Z,47.62
2019-01-26T05:51:05.128Z,48.38
2019-01-26T05:53:31.050Z,48.19
2019-01-26T05:56:00.451Z,47.97
2019-01-26T05:58:26.323Z,47.76
2019-01-26T06:00:52.248Z,48.47
2019-01-26T06:03:18.211Z,48.89
2019-01-26T06:05:44.089Z,48.69
2019-01-26T06:08:10.009Z,48.58
2019-01-26T06:10:35.878Z,48.69
2019-01-26T06:13:01.758Z,48.59
2019-01-26T06:15:27.640Z,48.04
2019-01-26T06:17:55.269Z,48.42
2019-01-26T06:20:21.351Z,48.83
2019-01-26T06:22:47.249Z,49.59
2019-01-26T06:25:15.627Z,49.47
2019-01-26T06:27:41.523Z,49.52
2019-01-26T06:30:13.263Z,49.92
2019-01-26T06:32:39.115Z,49.99
2019-01-26T06:35:05.409Z,49.30
2019-01-26T06:37:31.320Z,48.87
2019-01-26T06:39:57.177Z,48.97
2019-01-26T06:42:23.119Z,49.31
2019-01-26T06:44:49.085Z,48.99
2019-01-26T06:47:14.994Z,48.44
2019-01-26T06:49:40.874Z,48.73
2019-01-26T06:52:06.776Z,48.99
2019-01-26T06:54:32.642Z,47.80
2019-01-26T06:56:58.527Z,47.98
2019-01-26T06:59:24.478Z,47.57
2019-01-26T07:01:50.375Z,47.13
2019-01-26T07:04:24.182Z,47.09
2019-01-26T07:06:52.075Z,46.71
2019-01-26T07:09:17.947Z,46.90
2019-01-26T07:11:43.832Z,47.23
2019-01-26T07:14:09.709Z,47.13
2019-01-26T07:16:35.648Z,46.75
2019-01-26T07:19:01.517Z,46.69
2019-01-26T07:21:27.415Z,46.80
2019-01-26T07:23:53.291Z,46.77
2019-01-26T07:26:19.141Z,46.71
2019-01-26T07:28:45.025Z,46.81
2019-01-26T07:31:10.899Z,46.47
2019-01-26T07:33:36.799Z,46.07
2019-01-26T07:36:02.666Z,46.15
2019-01-26T07:38:28.676Z,45.75
2019-01-26T07:40:54.661Z,44.99
2019-01-26T07:43:20.520Z,45.14
2019-01-26T07:45:46.484Z,45.34
2019-01-26T07:48:16.786Z,44.41
2019-01-26T07:50:40.206Z,44.22
2019-01-26T07:53:06.102Z,44.40
2019-01-26T07:55:31.977Z,44.41
2019-01-26T07:57:57.836Z,44.86
2019-01-26T08:00:26.569Z,45.07
2019-01-26T08:02:52.432Z,45.19
2019-01-26T08:05:18.316Z,44.96
2019-01-26T08:07:44.234Z,45.00
2019-01-26T08:10:12.856Z,45.15
2019-01-26T08:12:38.705Z,45.97
2019-01-26T08:15:08.252Z,46.18
2019-01-26T08:17:34.117Z,45.48
2019-01-26T08:19:59.975Z,44.14
2019-01-26T08:22:25.868Z,44.22
2019-01-26T08:24:51.715Z,44.85
2019-01-26T08:27:17.597Z,44.30
2019-01-26T08:29:43.506Z,43.48
2019-01-26T08:32:09.359Z,43.69
2019-01-26T08:34:35.233Z,43.27
2019-01-26T08:37:01.130Z,42.94
2019-01-26T08:39:27.024Z,43.36
2019-01-26T08:41:52.912Z,43.49
2019-01-26T08:44:18.803Z,41.58
2019-01-26T08:46:44.701Z,41.08
2019-01-26T08:49:10.557Z,40.94
2019-01-26T08:51:36.430Z,39.57
2019-01-26T08:54:02.415Z,39.14
2019-01-26T08:56:28.778Z,38.81
2019-01-26T08:58:54.674Z,38.10
2019-01-26T09:01:20.546Z,38.56
2019-01-26T09:03:48.342Z,37.92
2019-01-26T09:06:16.157Z,37.60
2019-01-26T09:08:42.050Z,37.37
2019-01-26T09:11:07.942Z,38.29
2019-01-26T09:13:33.809Z,40.00
2019-01-26T09:15:59.692Z,40.14
2019-01-26T09:18:25.592Z,43.06
2019-01-26T09:20:51.462Z,43.42
2019-01-26T09:23:17.466Z,43.91
2019-01-26T09:25:43.341Z,44.39
2019-01-26T09:28:09.905Z,44.71
2019-01-26T09:30:35.833Z,44.64
2019-01-26T09:33:01.702Z,44.63
2019-01-26T09:35:27.561Z,45.19
2019-01-26T09:37:53.481Z,45.17
2019-01-26T09:40:20.669Z,45.48
2019-01-26T09:42:46.539Z,45.65
2019-01-26T09:45:15.472Z,45.61
2019-01-26T09:47:41.448Z,45.66
2019-01-26T09:50:08.909Z,45.66
2019-01-26T09:52:34.822Z,45.77
2019-01-26T09:55:00.777Z,45.50
2019-01-26T09:57:26.639Z,45.37
2019-01-26T09:59:52.660Z,45.32
2019-01-26T10:02:18.549Z,44.64
2019-01-26T10:04:44.439Z,44.73
2019-01-26T10:07:10.361Z,44.38
2019-01-26T10:09:36.241Z,44.63
2019-01-26T10:12:02.111Z,44.11
2019-01-26T10:14:28.086Z,44.20
2019-01-26T10:16:53.950Z,44.18
2019-01-26T10:19:19.847Z,43.85
2019-01-26T10:21:45.729Z,44.33
2019-01-26T10:24:11.629Z,44.71
2019-01-26T10:26:37.586Z,45.14
2019-01-26T10:29:03.477Z,45.11
2019-01-26T10:31:29.365Z,45.39
2019-01-26T10:33:55.216Z,45.22
2019-01-26T10:36:22.984Z,45.35
2019-01-26T10:38:48.922Z,45.37
2019-01-26T10:41:19.421Z,45.57
2019-01-26T10:43:53.366Z,45.28
2019-01-26T10:46:19.241Z,45.59
2019-01-26T10:48:45.111Z,44.75
2019-01-26T10:51:11.020Z,44.49
2019-01-26T10:53:36.899Z,45.51
2019-01-26T10:56:02.791Z,45.56
2019-01-26T10:58:28.727Z,45.76
2019-01-26T11:00:54.629Z,46.32
2019-01-26T11:03:20.551Z,45.88
2019-01-26T11:05:46.438Z,46.34
2019-01-26T11:08:12.318Z,47.14
2019-01-26T11:10:38.182Z,47.61
2019-01-26T11:13:04.160Z,47.02
2019-01-26T11:15:30.066Z,47.05
2019-01-26T11:17:55.967Z,46.90
2019-01-26T11:20:21.817Z,47.16
2019-01-26T11:22:47.747Z,47.79
2019-01-26T11:25:13.604Z,48.50
2019-01-26T11:27:39.529Z,48.44
2019-01-26T11:30:10.689Z,47.93
2019-01-26T11:32:36.603Z,48.11
2019-01-26T11:35:04.756Z,48.28
2019-01-26T11:37:30.617Z,46.88
2019-01-26T11:39:58.497Z,46.65
2019-01-26T11:42:24.374Z,46.33
2019-01-26T11:45:04.300Z,46.29
2019-01-26T11:47:30.161Z,47.49
2019-01-26T11:49:56.742Z,47.50
2019-01-26T11:52:22.615Z,47.04
2019-01-26T11:54:50.404Z,47.18
2019-01-26T11:57:17.060Z,49.31
2019-01-26T11:59:44.805Z,48.56
2019-01-26T12:02:12.591Z,46.69
2019-01-26T12:04:40.396Z,47.43
2019-01-26T12:07:07.959Z,48.47
2019-01-26T12:09:33.854Z,47.72
2019-01-26T12:11:59.744Z,46.86
2019-01-26T12:14:25.651Z,46.38
2019-01-26T12:16:51.545Z,45.93
2019-01-26T12:19:22.342Z,46.66
2019-01-26T12:21:45.197Z,46.76
2019-01-26T12:24:12.040Z,46.91
2019-01-26T12:26:38.168Z,47.62
2019-01-26T12:29:04.032Z,47.48
2019-01-26T12:31:29.952Z,60.29
2019-01-26T12:33:55.814Z,45.20
2019-01-26T12:36:21.690Z,53.63
2019-01-26T12:38:47.580Z,45.73
2019-01-26T12:41:13.471Z,44.21
2019-01-26T12:43:39.345Z,61.99
2019-01-26T12:46:05.346Z,45.19
2019-01-26T12:48:31.229Z,43.89
2019-01-26T12:50:57.104Z,44.41
2019-01-26T12:53:22.992Z,43.63
2019-01-26T12:55:48.858Z,42.98
2019-01-26T12:58:14.768Z,43.54
2019-01-26T13:00:44.339Z,43.80
2019-01-26T13:03:10.291Z,43.01
2019-01-26T13:05:36.154Z,37.64
2019-01-26T13:08:02.014Z,38.64
2019-01-26T13:10:34.435Z,38.15
2019-01-26T13:13:00.306Z,37.90
2019-01-26T13:15:26.207Z,37.56
2019-01-26T13:17:52.095Z,37.73
2019-01-26T13:20:17.984Z,38.28
2019-01-26T13:22:43.873Z,36.13
2019-01-26T13:25:15.799Z,37.89
2019-01-26T13:27:41.719Z,37.83
2019-01-26T13:30:11.401Z,36.43
2019-01-26T13:32:37.272Z,36.80
2019-01-26T13:35:05.893Z,38.52
2019-01-26T13:37:31.769Z,39.95
2019-01-26T13:39:57.640Z,42.16
2019-01-26T13:42:23.649Z,43.53
2019-01-26T13:44:49.588Z,43.92
2019-01-26T13:47:15.441Z,44.42
2019-01-26T13:49:44.119Z,44.87
2019-01-26T13:52:09.247Z,45.19
2019-01-26T13:54:35.141Z,45.92
2019-01-26T13:57:01.048Z,45.25
2019-01-26T13:59:26.914Z,45.28
2019-01-26T14:01:52.882Z,45.36
2019-01-26T14:04:18.769Z,45.27
2019-01-26T14:06:44.649Z,44.66
2019-01-26T14:09:10.578Z,43.86
2019-01-26T14:11:36.497Z,43.93
2019-01-26T14:14:02.419Z,44.05
2019-01-26T14:16:28.290Z,45.22
2019-01-26T14:18:54.172Z,45.52
2019-01-26T14:21:20.171Z,45.09
2019-01-26T14:23:46.097Z,45.94
2019-01-26T14:26:11.953Z,45.81
2019-01-26T14:28:37.920Z,47.47
2019-01-26T14:31:03.939Z,47.00
2019-01-26T14:33:29.972Z,47.18
2019-01-26T14:35:55.882Z,46.96
2019-01-26T14:38:21.778Z,46.90
2019-01-26T14:40:47.710Z,46.65
2019-01-26T14:43:13.619Z,47.12
2019-01-26T14:45:39.505Z,46.93
2019-01-26T14:48:05.591Z,47.83
2019-01-26T14:50:31.544Z,47.73
2019-01-26T14:52:57.420Z,47.77
2019-01-26T14:55:25.599Z,47.57
2019-01-26T14:57:51.502Z,47.33
2019-01-26T15:00:34.454Z,47.51
2019-01-26T15:03:00.549Z,47.49
2019-01-26T15:05:26.749Z,46.83
2019-01-26T15:07:52.605Z,47.30
2019-01-26T15:10:18.540Z,47.44
2019-01-26T15:12:44.483Z,48.54
2019-01-26T15:15:13.373Z,48.76
2019-01-26T15:17:39.383Z,48.41
2019-01-26T15:20:11.370Z,49.29
2019-01-26T15:22:37.477Z,49.97
2019-01-26T15:25:06.100Z,49.81
2019-01-26T15:27:32.043Z,49.68
2019-01-26T15:29:57.914Z,50.06
2019-01-26T15:32:23.829Z,50.58
2019-01-26T15:34:49.677Z,50.86
2019-01-26T15:37:15.550Z,51.57
2019-01-26T15:39:41.460Z,51.79
2019-01-26T15:42:07.319Z,52.34
2019-01-26T15:44:33.470Z,52.13
2019-01-26T15:46:59.384Z,52.34
2019-01-26T15:49:25.367Z,52.81
2019-01-26T15:51:51.274Z,53.22
2019-01-26T15:54:17.163Z,53.26
2019-01-26T15:56:43.018Z,54.13
2019-01-26T15:59:08.997Z,54.27
2019-01-26T16:01:34.881Z,54.47
2019-01-26T16:04:06.511Z,54.69
2019-01-26T16:06:32.382Z,54.94
2019-01-26T16:11:42.162Z,55.33
2019-01-26T16:14:08.031Z,55.55
2019-01-26T16:16:33.964Z,55.94
2019-01-26T16:18:59.824Z,56.02
2019-01-26T16:21:25.688Z,56.54
2019-01-26T16:23:51.644Z,57.04
2019-01-26T16:26:17.492Z,57.93
2019-01-26T16:28:43.369Z,58.45
2019-01-26T16:31:09.266Z,58.63
2019-01-26T16:33:35.310Z,59.02
2019-01-26T16:36:01.236Z,60.49
2019-01-26T16:38:27.221Z,60.49
2019-01-26T16:40:53.128Z,60.59
2019-01-26T16:43:19.019Z,61.19
2019-01-26T16:45:44.917Z,61.00
2019-01-26T16:48:10.871Z,61.21
2019-01-26T16:50:36.782Z,61.64
2019-01-26T16:53:02.761Z,61.96
2019-01-26T16:55:28.731Z,61.96
2019-01-26T16:57:54.715Z,62.22
2019-01-26T17:00:26.946Z,62.40
2019-01-26T17:02:52.832Z,62.80
2019-01-26T17:05:25.498Z,62.73
2019-01-26T17:07:46.577Z,62.72
2019-01-26T17:10:17.884Z,62.74
2019-01-26T17:12:43.754Z,62.82
2019-01-26T17:15:09.997Z,63.15
2019-01-26T17:17:35.888Z,63.11
2019-01-26T17:20:16.669Z,63.33
2019-01-26T17:22:42.523Z,63.66
2019-01-26T17:25:08.515Z,63.17
2019-01-26T17:27:34.433Z,64.04
2019-01-26T17:30:00.827Z,64.44
2019-01-26T17:32:26.688Z,64.58
2019-01-26T17:34:52.586Z,65.34
2019-01-26T17:37:18.556Z,65.11
2019-01-26T17:39:44.527Z,65.30
2019-01-26T17:42:10.420Z,65.30
2019-01-26T17:44:36.453Z,65.85
2019-01-26T17:47:02.397Z,66.03
2019-01-26T17:49:28.256Z,65.82
2019-01-26T17:51:54.122Z,66.00
2019-01-26T17:54:20.013Z,66.18
2019-01-26T17:56:45.859Z,66.36
2019-01-26T17:59:11.749Z,66.80
2019-01-26T18:01:37.670Z,66.85
2019-01-26T18:04:03.533Z,67.09
2019-01-26T18:06:29.525Z,67.20
2019-01-26T18:08:55.397Z,66.01
2019-01-26T18:11:21.298Z,65.20
2019-01-26T18:13:47.225Z,65.37
2019-01-26T18:16:13.251Z,65.90
2019-01-26T18:18:39.145Z,64.74
2019-01-26T18:21:05.128Z,64.76
2019-01-26T18:23:31.394Z,64.88
2019-01-26T18:25:57.386Z,65.55
2019-01-26T18:28:23.302Z,65.80
2019-01-26T18:30:49.144Z,64.80
2019-01-26T18:33:15.027Z,65.20
2019-01-26T18:35:40.941Z,65.60
2019-01-26T18:38:06.966Z,65.83
2019-01-26T18:40:32.928Z,66.76
2019-01-26T18:42:58.818Z,67.33
2019-01-26T18:45:27.320Z,67.05
2019-01-26T18:47:53.302Z,65.46
2019-01-26T18:50:21.439Z,65.31
2019-01-26T18:52:47.309Z,65.42
2019-01-26T18:55:13.181Z,65.76
2019-01-26T18:57:39.112Z,65.85
2019-01-26T19:00:08.802Z,65.93
2019-01-26T19:02:34.720Z,65.59
2019-01-26T19:05:00.669Z,65.86
2019-01-26T19:07:26.582Z,65.63
2019-01-26T19:09:52.468Z,65.03
2019-01-26T19:12:18.364Z,65.14
2019-01-26T19:14:44.398Z,65.72
2019-01-26T19:17:10.281Z,65.93
2019-01-26T19:19:36.163Z,65.73
2019-01-26T19:22:02.059Z,65.93
2019-01-26T19:24:28.076Z,66.07
2019-01-26T19:26:53.912Z,66.46
2019-01-26T19:29:19.803Z,66.75
2019-01-26T19:31:45.722Z,66.97
2019-01-26T19:34:11.597Z,67.03
2019-01-26T19:36:37.466Z,67.26
2019-01-26T19:39:05.191Z,67.14
2019-01-26T19:41:31.726Z,67.76
2019-01-26T19:43:58.099Z,67.55
2019-01-26T19:46:24.689Z,67.58
2019-01-26T19:48:52.879Z,67.64
2019-01-26T19:51:19.233Z,67.13
2019-01-26T19:53:46.203Z,67.40
2019-01-26T19:56:12.863Z,67.41
2019-01-26T19:58:40.619Z,67.61
2019-01-26T20:01:08.159Z,67.59
2019-01-26T20:03:38.584Z,67.65
2019-01-26T20:06:05.721Z,67.58
2019-01-26T20:08:34.427Z,67.09
2019-01-26T20:11:03.393Z,67.30
2019-01-26T20:13:30.905Z,67.04
2019-01-26T20:15:59.879Z,66.44
2019-01-26T20:18:27.172Z,66.18
2019-01-26T20:20:55.625Z,66.37
2019-01-26T20:23:23.234Z,66.12
2019-01-26T20:25:51.060Z,65.98
2019-01-26T20:28:18.584Z,66.00
2019-01-26T20:30:46.504Z,65.98
2019-01-26T20:33:14.051Z,66.01
2019-01-26T20:35:41.525Z,65.79
2019-01-26T20:38:09.178Z,66.09
2019-01-26T20:40:36.562Z,66.46
2019-01-26T20:43:07.687Z,66.38
2019-01-26T20:45:35.809Z,66.31
2019-01-26T20:48:03.223Z,66.62
2019-01-26T20:50:33.843Z,66.91
2019-01-26T20:53:01.291Z,66.85
2019-01-26T20:55:29.011Z,66.90
2019-01-26T20:57:57.518Z,66.93
2019-01-26T21:00:31.090Z,66.83
2019-01-26T21:03:00.232Z,66.78
2019-01-26T21:05:27.809Z,66.47
2019-01-26T21:07:55.532Z,66.64
2019-01-26T21:10:27.870Z,66.72
2019-01-26T21:12:55.881Z,67.29
2019-01-26T21:15:24.398Z,67.11
2019-01-26T21:17:52.575Z,67.20
2019-01-26T21:20:22.896Z,67.27
2019-01-26T21:22:51.967Z,67.43
2019-01-26T21:25:19.488Z,67.73
2019-01-26T21:27:47.107Z,67.57
2019-01-26T21:30:22.332Z,67.43
2019-01-26T21:32:49.759Z,67.24
2019-01-26T21:35:16.701Z,67.02
2019-01-26T21:37:42.849Z,67.31
2019-01-26T21:40:20.362Z,67.23
2019-01-26T21:42:46.389Z,67.04
2019-01-26T21:45:14.976Z,66.69
2019-01-26T21:47:41.106Z,66.72
2019-01-26T21:50:12.786Z,66.39
2019-01-26T21:52:41.106Z,66.09
2019-01-26T21:55:07.439Z,66.49
2019-01-26T21:57:33.335Z,66.43
2019-01-26T21:59:59.226Z,66.40
2019-01-26T22:02:25.118Z,66.30
2019-01-26T22:04:50.977Z,66.73
2019-01-26T22:07:16.906Z,66.42
2019-01-26T22:09:42.783Z,66.32
2019-01-26T22:12:08.674Z,66.27
2019-01-26T22:14:35.630Z,66.38
2019-01-26T22:17:01.757Z,66.24
2019-01-26T22:19:27.627Z,66.13
2019-01-26T22:21:53.549Z,66.29
2019-01-26T22:24:19.500Z,66.66
2019-01-26T22:26:45.625Z,66.69
2019-01-26T22:29:11.493Z,66.93
2019-01-26T22:31:37.423Z,67.05
2019-01-26T22:34:03.717Z,66.97
2019-01-26T22:36:29.561Z,66.91
2019-01-26T22:38:55.535Z,66.89
2019-01-26T22:41:21.440Z,67.04
2019-01-26T22:43:47.294Z,66.96
2019-01-26T22:46:13.192Z,66.85
2019-01-26T22:48:39.154Z,67.15
2019-01-26T22:51:05.044Z,67.12
2019-01-26T22:53:30.921Z,67.21
2019-01-26T22:55:56.888Z,67.84
2019-01-26T22:58:22.793Z,67.91
2019-01-26T23:01:07.852Z,68.20
2019-01-26T23:03:37.668Z,68.09
2019-01-26T23:06:35.215Z,68.21
2019-01-26T23:09:17.132Z,67.43
2019-01-26T23:11:58.939Z,66.11
2019-01-26T23:14:37.931Z,65.88
2019-01-26T23:17:24.626Z,65.36
2019-01-26T23:19:57.586Z,65.07
2019-01-26T23:22:36.257Z,65.40
2019-01-26T23:25:09.055Z,65.49
2019-01-26T23:27:47.915Z,65.65
2019-01-26T23:30:37.601Z,65.55
2019-01-26T23:33:03.464Z,65.92
2019-01-26T23:35:29.349Z,66.04
2019-01-26T23:37:55.250Z,66.22
2019-01-26T23:40:21.122Z,65.95
2019-01-26T23:42:47.097Z,66.17
2019-01-26T23:45:13.049Z,66.36
2019-01-26T23:47:38.933Z,66.69
2019-01-26T23:50:07.305Z,66.40
2019-01-26T23:52:33.250Z,66.78
2019-01-26T23:54:59.081Z,66.44
2019-01-26T23:57:24.976Z,66.90
2019-01-26T23:59:50.933Z,67.15
